sensor_id;sensor_type;location;lat;lon;timestamp;P1;durP1;ratioP1;P2;durP2;ratioP2
70369;SDS011;57790;51.356;-2.906;2023-03-16T00:02:27;5.27;;;1.10;;
70369;SDS011;57790;51.356;-2.906;2023-03-16T00:05:27;6.40;;;0.97;;
70369;SDS011;57790;51.356;-2.906;2023-03-16T00:08:28;5.27;;;0.70;;
70369;SDS011;57790;51.356;-2.906;2023-03-16T00:11:28;7.10;;;1.10;;
70369;SDS011;57790;51.356;-2.906;2023-03-16T00:14:29;6.22;;;0.88;;
70369;SDS011;57790;51.356;-2.906;2023-03-16T00:17:31;5.25;;;0.90;;
70369;SDS011;57790;51.356;-2.906;2023-03-16T00:20:31;4.63;;;0.90;;
70369;SDS011;57790;51.356;-2.906;2023-03-16T00:23:33;4.18;;;0.82;;
70369;SDS011;57790;51.356;-2.906;2023-03-16T00:26:37;4.37;;;1.00;;
70369;SDS011;57790;51.356;-2.906;2023-03-16T00:29:37;5.53;;;0.73;;
70369;SDS011;57790;51.356;-2.906;2023-03-16T00:32:38;6.80;;;0.93;;
70369;SDS011;57790;51.356;-2.906;2023-03-16T00:35:38;5.30;;;0.80;;
70369;SDS011;57790;51.356;-2.906;2023-03-16T00:38:39;4.27;;;0.70;;
70369;SDS011;57790;51.356;-2.906;2023-03-16T00:41:44;5.18;;;0.63;;
70369;SDS011;57790;51.356;-2.906;2023-03-16T00:44:44;8.87;;;1.10;;
70369;SDS011;57790;51.356;-2.906;2023-03-16T00:47:45;8.05;;;1.00;;
70369;SDS011;57790;51.356;-2.906;2023-03-16T00:50:45;10.17;;;1.30;;
70369;SDS011;57790;51.356;-2.906;2023-03-16T00:53:46;7.73;;;0.90;;
70369;SDS011;57790;51.356;-2.906;2023-03-16T00:56:46;7.83;;;1.20;;
70369;SDS011;57790;51.356;-2.906;2023-03-16T00:59:47;8.07;;;1.30;;
70369;SDS011;57790;51.356;-2.906;2023-03-16T01:02:48;7.45;;;0.95;;
70369;SDS011;57790;51.356;-2.906;2023-03-16T01:05:48;9.57;;;1.23;;
70369;SDS011;57790;51.356;-2.906;2023-03-16T01:08:49;8.47;;;1.10;;
70369;SDS011;57790;51.356;-2.906;2023-03-16T01:11:51;9.55;;;1.25;;
70369;SDS011;57790;51.356;-2.906;2023-03-16T01:14:53;8.68;;;0.98;;
70369;SDS011;57790;51.356;-2.906;2023-03-16T01:17:54;9.07;;;1.43;;
70369;SDS011;57790;51.356;-2.906;2023-03-16T01:20:55;11.10;;;1.27;;
70369;SDS011;57790;51.356;-2.906;2023-03-16T01:23:55;6.03;;;1.00;;
70369;SDS011;57790;51.356;-2.906;2023-03-16T01:26:56;6.10;;;1.00;;
70369;SDS011;57790;51.356;-2.906;2023-03-16T01:29:56;7.07;;;1.02;;
70369;SDS011;57790;51.356;-2.906;2023-03-16T01:32:57;8.80;;;1.30;;
70369;SDS011;57790;51.356;-2.906;2023-03-16T01:35:58;6.47;;;0.90;;
70369;SDS011;57790;51.356;-2.906;2023-03-16T01:39:01;6.80;;;0.98;;
70369;SDS011;57790;51.356;-2.906;2023-03-16T01:42:01;8.27;;;1.02;;
70369;SDS011;57790;51.356;-2.906;2023-03-16T01:45:02;9.53;;;1.00;;
70369;SDS011;57790;51.356;-2.906;2023-03-16T01:48:04;7.50;;;1.63;;
70369;SDS011;57790;51.356;-2.906;2023-03-16T01:51:06;5.47;;;0.83;;
70369;SDS011;57790;51.356;-2.906;2023-03-16T01:54:17;5.35;;;0.88;;
70369;SDS011;57790;51.356;-2.906;2023-03-16T01:57:22;7.97;;;0.90;;
70369;SDS011;57790;51.356;-2.906;2023-03-16T02:00:28;5.97;;;0.82;;
70369;SDS011;57790;51.356;-2.906;2023-03-16T02:03:31;5.20;;;0.90;;
70369;SDS011;57790;51.356;-2.906;2023-03-16T02:06:35;11.17;;;1.70;;
70369;SDS011;57790;51.356;-2.906;2023-03-16T02:09:38;6.05;;;0.93;;
70369;SDS011;57790;51.356;-2.906;2023-03-16T02:12:42;7.43;;;0.90;;
70369;SDS011;57790;51.356;-2.906;2023-03-16T02:15:43;5.78;;;0.73;;
70369;SDS011;57790;51.356;-2.906;2023-03-16T02:18:44;6.20;;;0.80;;
70369;SDS011;57790;51.356;-2.906;2023-03-16T02:21:48;4.55;;;0.70;;
70369;SDS011;57790;51.356;-2.906;2023-03-16T02:24:57;7.70;;;0.90;;
70369;SDS011;57790;51.356;-2.906;2023-03-16T02:31:07;8.57;;;1.20;;
70369;SDS011;57790;51.356;-2.906;2023-03-16T02:34:08;7.77;;;0.90;;
70369;SDS011;57790;51.356;-2.906;2023-03-16T02:37:09;8.52;;;1.08;;
70369;SDS011;57790;51.356;-2.906;2023-03-16T02:40:30;7.07;;;1.00;;
70369;SDS011;57790;51.356;-2.906;2023-03-16T02:43:32;3.88;;;0.80;;
70369;SDS011;57790;51.356;-2.906;2023-03-16T02:46:35;5.57;;;1.00;;
70369;SDS011;57790;51.356;-2.906;2023-03-16T02:49:37;6.10;;;0.90;;
70369;SDS011;57790;51.356;-2.906;2023-03-16T02:52:40;5.47;;;0.88;;
70369;SDS011;57790;51.356;-2.906;2023-03-16T02:55:40;5.17;;;0.77;;
70369;SDS011;57790;51.356;-2.906;2023-03-16T02:58:41;5.90;;;0.80;;
70369;SDS011;57790;51.356;-2.906;2023-03-16T03:01:41;6.30;;;0.90;;
70369;SDS011;57790;51.356;-2.906;2023-03-16T03:04:42;7.70;;;1.03;;
70369;SDS011;57790;51.356;-2.906;2023-03-16T03:07:45;5.72;;;0.90;;
70369;SDS011;57790;51.356;-2.906;2023-03-16T03:10:46;5.70;;;1.00;;
70369;SDS011;57790;51.356;-2.906;2023-03-16T03:13:46;7.97;;;1.20;;
70369;SDS011;57790;51.356;-2.906;2023-03-16T03:16:47;6.63;;;0.70;;
70369;SDS011;57790;51.356;-2.906;2023-03-16T03:19:47;5.27;;;1.07;;
70369;SDS011;57790;51.356;-2.906;2023-03-16T03:22:48;6.67;;;0.90;;
70369;SDS011;57790;51.356;-2.906;2023-03-16T03:25:49;4.78;;;0.80;;
70369;SDS011;57790;51.356;-2.906;2023-03-16T03:28:49;4.50;;;0.63;;
70369;SDS011;57790;51.356;-2.906;2023-03-16T03:31:51;4.80;;;0.70;;
70369;SDS011;57790;51.356;-2.906;2023-03-16T03:34:51;3.63;;;0.73;;
70369;SDS011;57790;51.356;-2.906;2023-03-16T03:37:52;5.05;;;0.70;;
70369;SDS011;57790;51.356;-2.906;2023-03-16T03:40:53;3.67;;;0.70;;
70369;SDS011;57790;51.356;-2.906;2023-03-16T03:43:58;6.80;;;1.15;;
70369;SDS011;57790;51.356;-2.906;2023-03-16T03:46:59;4.70;;;0.80;;
70369;SDS011;57790;51.356;-2.906;2023-03-16T03:50:00;7.18;;;1.00;;
70369;SDS011;57790;51.356;-2.906;2023-03-16T03:53:00;4.57;;;0.80;;
70369;SDS011;57790;51.356;-2.906;2023-03-16T03:56:00;8.10;;;0.80;;
70369;SDS011;57790;51.356;-2.906;2023-03-16T03:59:01;6.20;;;1.10;;
70369;SDS011;57790;51.356;-2.906;2023-03-16T04:02:01;4.47;;;0.90;;
70369;SDS011;57790;51.356;-2.906;2023-03-16T04:05:02;5.60;;;0.90;;
70369;SDS011;57790;51.356;-2.906;2023-03-16T04:08:03;6.70;;;1.17;;
70369;SDS011;57790;51.356;-2.906;2023-03-16T04:11:03;9.03;;;1.10;;
70369;SDS011;57790;51.356;-2.906;2023-03-16T04:14:04;6.43;;;1.00;;
70369;SDS011;57790;51.356;-2.906;2023-03-16T04:17:05;6.93;;;1.20;;
70369;SDS011;57790;51.356;-2.906;2023-03-16T04:20:06;7.95;;;1.30;;
70369;SDS011;57790;51.356;-2.906;2023-03-16T04:23:12;7.75;;;1.10;;
70369;SDS011;57790;51.356;-2.906;2023-03-16T04:26:13;8.15;;;1.10;;
70369;SDS011;57790;51.356;-2.906;2023-03-16T04:29:13;8.40;;;1.30;;
70369;SDS011;57790;51.356;-2.906;2023-03-16T04:32:17;4.75;;;0.95;;
70369;SDS011;57790;51.356;-2.906;2023-03-16T04:35:17;7.73;;;1.00;;
70369;SDS011;57790;51.356;-2.906;2023-03-16T04:38:18;5.97;;;1.10;;
70369;SDS011;57790;51.356;-2.906;2023-03-16T04:41:18;6.53;;;1.23;;
70369;SDS011;57790;51.356;-2.906;2023-03-16T04:44:18;6.00;;;1.08;;
70369;SDS011;57790;51.356;-2.906;2023-03-16T04:47:19;7.80;;;1.20;;
70369;SDS011;57790;51.356;-2.906;2023-03-16T04:50:19;6.23;;;1.10;;
70369;SDS011;57790;51.356;-2.906;2023-03-16T04:53:20;5.07;;;0.93;;
70369;SDS011;57790;51.356;-2.906;2023-03-16T04:56:20;6.23;;;0.93;;
70369;SDS011;57790;51.356;-2.906;2023-03-16T04:59:22;6.22;;;1.00;;
70369;SDS011;57790;51.356;-2.906;2023-03-16T05:02:22;7.20;;;0.93;;
70369;SDS011;57790;51.356;-2.906;2023-03-16T05:05:23;9.65;;;1.10;;
70369;SDS011;57790;51.356;-2.906;2023-03-16T05:08:23;4.67;;;1.00;;
70369;SDS011;57790;51.356;-2.906;2023-03-16T05:11:24;7.70;;;1.50;;
70369;SDS011;57790;51.356;-2.906;2023-03-16T05:14:24;5.00;;;1.00;;
70369;SDS011;57790;51.356;-2.906;2023-03-16T05:17:25;8.97;;;1.27;;
70369;SDS011;57790;51.356;-2.906;2023-03-16T05:20:25;9.95;;;1.45;;
70369;SDS011;57790;51.356;-2.906;2023-03-16T05:23:25;9.37;;;1.40;;
70369;SDS011;57790;51.356;-2.906;2023-03-16T05:26:26;8.93;;;1.30;;
70369;SDS011;57790;51.356;-2.906;2023-03-16T05:29:26;10.37;;;1.57;;
70369;SDS011;57790;51.356;-2.906;2023-03-16T05:32:27;7.37;;;1.23;;
70369;SDS011;57790;51.356;-2.906;2023-03-16T05:35:27;6.47;;;0.87;;
70369;SDS011;57790;51.356;-2.906;2023-03-16T05:38:28;10.83;;;1.13;;
70369;SDS011;57790;51.356;-2.906;2023-03-16T05:41:30;10.47;;;1.00;;
70369;SDS011;57790;51.356;-2.906;2023-03-16T05:44:31;8.80;;;1.40;;
70369;SDS011;57790;51.356;-2.906;2023-03-16T05:47:32;8.97;;;1.20;;
70369;SDS011;57790;51.356;-2.906;2023-03-16T05:50:35;7.37;;;1.00;;
70369;SDS011;57790;51.356;-2.906;2023-03-16T05:53:35;7.00;;;1.00;;
70369;SDS011;57790;51.356;-2.906;2023-03-16T05:56:36;7.63;;;1.23;;
70369;SDS011;57790;51.356;-2.906;2023-03-16T05:59:36;8.50;;;0.83;;
70369;SDS011;57790;51.356;-2.906;2023-03-16T06:02:37;6.23;;;0.93;;
70369;SDS011;57790;51.356;-2.906;2023-03-16T06:05:37;7.90;;;1.07;;
70369;SDS011;57790;51.356;-2.906;2023-03-16T06:08:38;9.32;;;1.08;;
70369;SDS011;57790;51.356;-2.906;2023-03-16T06:11:38;9.23;;;1.13;;
70369;SDS011;57790;51.356;-2.906;2023-03-16T06:14:38;8.17;;;1.03;;
70369;SDS011;57790;51.356;-2.906;2023-03-16T06:17:39;6.53;;;0.87;;
70369;SDS011;57790;51.356;-2.906;2023-03-16T06:20:40;7.03;;;0.93;;
70369;SDS011;57790;51.356;-2.906;2023-03-16T06:23:40;10.20;;;1.13;;
70369;SDS011;57790;51.356;-2.906;2023-03-16T06:26:41;9.80;;;1.70;;
70369;SDS011;57790;51.356;-2.906;2023-03-16T06:29:41;4.77;;;1.13;;
70369;SDS011;57790;51.356;-2.906;2023-03-16T06:32:42;8.83;;;1.50;;
70369;SDS011;57790;51.356;-2.906;2023-03-16T06:35:44;10.10;;;1.30;;
70369;SDS011;57790;51.356;-2.906;2023-03-16T06:38:47;10.55;;;1.25;;
70369;SDS011;57790;51.356;-2.906;2023-03-16T06:41:47;12.07;;;1.53;;
70369;SDS011;57790;51.356;-2.906;2023-03-16T06:44:48;10.13;;;1.53;;
70369;SDS011;57790;51.356;-2.906;2023-03-16T06:47:48;8.27;;;1.00;;
70369;SDS011;57790;51.356;-2.906;2023-03-16T06:50:49;9.20;;;1.67;;
70369;SDS011;57790;51.356;-2.906;2023-03-16T06:53:49;7.27;;;1.20;;
70369;SDS011;57790;51.356;-2.906;2023-03-16T06:56:49;10.40;;;1.40;;
70369;SDS011;57790;51.356;-2.906;2023-03-16T06:59:51;8.82;;;1.20;;
70369;SDS011;57790;51.356;-2.906;2023-03-16T07:02:51;10.97;;;1.30;;
70369;SDS011;57790;51.356;-2.906;2023-03-16T07:05:52;7.60;;;1.13;;
70369;SDS011;57790;51.356;-2.906;2023-03-16T07:08:53;9.33;;;1.07;;
70369;SDS011;57790;51.356;-2.906;2023-03-16T07:11:53;8.93;;;1.20;;
70369;SDS011;57790;51.356;-2.906;2023-03-16T07:14:53;7.47;;;1.23;;
70369;SDS011;57790;51.356;-2.906;2023-03-16T07:17:54;9.77;;;1.30;;
70369;SDS011;57790;51.356;-2.906;2023-03-16T07:20:54;5.87;;;1.00;;
70369;SDS011;57790;51.356;-2.906;2023-03-16T07:23:55;10.37;;;1.30;;
70369;SDS011;57790;51.356;-2.906;2023-03-16T07:26:55;8.50;;;1.20;;
70369;SDS011;57790;51.356;-2.906;2023-03-16T07:29:55;7.23;;;1.20;;
70369;SDS011;57790;51.356;-2.906;2023-03-16T07:32:56;7.53;;;1.20;;
70369;SDS011;57790;51.356;-2.906;2023-03-16T07:35:56;8.67;;;1.60;;
70369;SDS011;57790;51.356;-2.906;2023-03-16T07:38:57;7.47;;;1.17;;
70369;SDS011;57790;51.356;-2.906;2023-03-16T07:41:57;8.57;;;1.40;;
70369;SDS011;57790;51.356;-2.906;2023-03-16T07:44:58;8.47;;;1.30;;
70369;SDS011;57790;51.356;-2.906;2023-03-16T07:47:58;7.38;;;1.40;;
70369;SDS011;57790;51.356;-2.906;2023-03-16T07:50:58;8.50;;;1.40;;
70369;SDS011;57790;51.356;-2.906;2023-03-16T07:53:59;8.77;;;1.50;;
70369;SDS011;57790;51.356;-2.906;2023-03-16T07:56:59;7.73;;;1.30;;
70369;SDS011;57790;51.356;-2.906;2023-03-16T08:00:00;9.17;;;1.30;;
70369;SDS011;57790;51.356;-2.906;2023-03-16T08:03:04;7.20;;;1.38;;
70369;SDS011;57790;51.356;-2.906;2023-03-16T08:06:04;6.05;;;1.30;;
70369;SDS011;57790;51.356;-2.906;2023-03-16T08:09:05;6.87;;;1.00;;
70369;SDS011;57790;51.356;-2.906;2023-03-16T08:12:06;5.88;;;1.23;;
70369;SDS011;57790;51.356;-2.906;2023-03-16T08:15:07;7.03;;;0.90;;
70369;SDS011;57790;51.356;-2.906;2023-03-16T08:18:09;9.30;;;1.17;;
70369;SDS011;57790;51.356;-2.906;2023-03-16T08:21:09;7.57;;;1.20;;
70369;SDS011;57790;51.356;-2.906;2023-03-16T08:24:09;9.35;;;1.52;;
70369;SDS011;57790;51.356;-2.906;2023-03-16T08:27:10;8.73;;;1.53;;
70369;SDS011;57790;51.356;-2.906;2023-03-16T08:30:11;6.77;;;1.30;;
70369;SDS011;57790;51.356;-2.906;2023-03-16T08:33:12;7.07;;;1.20;;
70369;SDS011;57790;51.356;-2.906;2023-03-16T08:36:14;8.83;;;1.30;;
70369;SDS011;57790;51.356;-2.906;2023-03-16T08:39:15;5.35;;;1.23;;
70369;SDS011;57790;51.356;-2.906;2023-03-16T08:42:16;9.83;;;1.10;;
70369;SDS011;57790;51.356;-2.906;2023-03-16T08:45:18;7.22;;;1.20;;
70369;SDS011;57790;51.356;-2.906;2023-03-16T08:48:19;10.00;;;1.30;;
70369;SDS011;57790;51.356;-2.906;2023-03-16T08:51:19;8.57;;;1.30;;
70369;SDS011;57790;51.356;-2.906;2023-03-16T08:54:20;6.63;;;1.10;;
70369;SDS011;57790;51.356;-2.906;2023-03-16T08:57:21;5.23;;;0.90;;
70369;SDS011;57790;51.356;-2.906;2023-03-16T09:00:22;7.73;;;1.20;;
70369;SDS011;57790;51.356;-2.906;2023-03-16T09:03:23;6.85;;;1.10;;
70369;SDS011;57790;51.356;-2.906;2023-03-16T09:06:25;7.28;;;1.27;;
70369;SDS011;57790;51.356;-2.906;2023-03-16T09:09:25;8.37;;;1.27;;
70369;SDS011;57790;51.356;-2.906;2023-03-16T09:12:26;8.38;;;1.20;;
70369;SDS011;57790;51.356;-2.906;2023-03-16T09:15:26;7.10;;;1.03;;
70369;SDS011;57790;51.356;-2.906;2023-03-16T09:18:28;7.40;;;1.42;;
70369;SDS011;57790;51.356;-2.906;2023-03-16T09:21:28;8.57;;;1.70;;
70369;SDS011;57790;51.356;-2.906;2023-03-16T09:24:30;9.52;;;1.30;;
70369;SDS011;57790;51.356;-2.906;2023-03-16T09:27:31;10.40;;;1.23;;
70369;SDS011;57790;51.356;-2.906;2023-03-16T09:30:32;11.73;;;1.33;;
70369;SDS011;57790;51.356;-2.906;2023-03-16T09:33:33;10.43;;;1.30;;
70369;SDS011;57790;51.356;-2.906;2023-03-16T09:36:35;8.95;;;1.55;;
70369;SDS011;57790;51.356;-2.906;2023-03-16T09:39:35;6.10;;;1.00;;
70369;SDS011;57790;51.356;-2.906;2023-03-16T09:42:36;10.37;;;1.10;;
70369;SDS011;57790;51.356;-2.906;2023-03-16T09:49:26;6.75;;;0.90;;
70369;SDS011;57790;51.356;-2.906;2023-03-16T09:52:47;6.97;;;1.00;;
70369;SDS011;57790;51.356;-2.906;2023-03-16T09:56:13;7.93;;;1.30;;
70369;SDS011;57790;51.356;-2.906;2023-03-16T09:59:19;7.27;;;1.57;;
70369;SDS011;57790;51.356;-2.906;2023-03-16T10:05:34;6.10;;;1.08;;
70369;SDS011;57790;51.356;-2.906;2023-03-16T10:08:44;7.28;;;0.95;;
70369;SDS011;57790;51.356;-2.906;2023-03-16T10:11:54;6.43;;;1.00;;
70369;SDS011;57790;51.356;-2.906;2023-03-16T10:15:01;6.95;;;1.05;;
70369;SDS011;57790;51.356;-2.906;2023-03-16T10:18:05;6.17;;;0.87;;
70369;SDS011;57790;51.356;-2.906;2023-03-16T10:21:14;8.50;;;1.40;;
70369;SDS011;57790;51.356;-2.906;2023-03-16T10:24:31;8.38;;;1.10;;
70369;SDS011;57790;51.356;-2.906;2023-03-16T10:27:36;7.55;;;1.15;;
70369;SDS011;57790;51.356;-2.906;2023-03-16T10:30:38;8.00;;;1.00;;
70369;SDS011;57790;51.356;-2.906;2023-03-16T10:33:39;6.77;;;0.90;;
70369;SDS011;57790;51.356;-2.906;2023-03-16T10:36:40;6.53;;;0.80;;
70369;SDS011;57790;51.356;-2.906;2023-03-16T10:39:42;7.70;;;1.30;;
70369;SDS011;57790;51.356;-2.906;2023-03-16T10:42:43;5.50;;;0.75;;
70369;SDS011;57790;51.356;-2.906;2023-03-16T10:45:45;6.40;;;1.00;;
70369;SDS011;57790;51.356;-2.906;2023-03-16T10:48:53;5.82;;;0.93;;
70369;SDS011;57790;51.356;-2.906;2023-03-16T10:51:59;5.93;;;0.80;;
70369;SDS011;57790;51.356;-2.906;2023-03-16T10:55:01;6.22;;;1.02;;
70369;SDS011;57790;51.356;-2.906;2023-03-16T10:58:09;9.82;;;1.77;;
70369;SDS011;57790;51.356;-2.906;2023-03-16T11:01:23;9.15;;;0.90;;
70369;SDS011;57790;51.356;-2.906;2023-03-16T11:04:31;7.43;;;1.03;;
70369;SDS011;57790;51.356;-2.906;2023-03-16T11:07:32;8.27;;;1.35;;
70369;SDS011;57790;51.356;-2.906;2023-03-16T11:10:45;9.10;;;1.70;;
70369;SDS011;57790;51.356;-2.906;2023-03-16T11:13:55;8.13;;;0.90;;
70369;SDS011;57790;51.356;-2.906;2023-03-16T11:19:59;6.53;;;1.30;;
70369;SDS011;57790;51.356;-2.906;2023-03-16T11:23:14;8.05;;;1.00;;
70369;SDS011;57790;51.356;-2.906;2023-03-16T11:26:26;4.93;;;0.90;;
70369;SDS011;57790;51.356;-2.906;2023-03-16T11:32:38;7.30;;;1.43;;
70369;SDS011;57790;51.356;-2.906;2023-03-16T11:48:23;6.30;;;1.00;;
70369;SDS011;57790;51.356;-2.906;2023-03-16T12:11:24;5.85;;;0.90;;
70369;SDS011;57790;51.356;-2.906;2023-03-16T12:14:51;6.82;;;1.08;;
70369;SDS011;57790;51.356;-2.906;2023-03-16T12:18:07;6.97;;;0.90;;
70369;SDS011;57790;51.356;-2.906;2023-03-16T12:22:00;7.33;;;1.00;;
70369;SDS011;57790;51.356;-2.906;2023-03-16T12:24:41;5.65;;;0.80;;
70369;SDS011;57790;51.356;-2.906;2023-03-16T12:27:44;6.15;;;1.02;;
70369;SDS011;57790;51.356;-2.906;2023-03-16T12:34:01;7.30;;;1.73;;
70369;SDS011;57790;51.356;-2.906;2023-03-16T12:37:32;7.90;;;1.43;;
70369;SDS011;57790;51.356;-2.906;2023-03-16T12:40:38;4.75;;;0.98;;
70369;SDS011;57790;51.356;-2.906;2023-03-16T12:44:34;9.68;;;1.45;;
70369;SDS011;57790;51.356;-2.906;2023-03-16T12:50:53;7.47;;;1.03;;
70369;SDS011;57790;51.356;-2.906;2023-03-16T12:53:57;6.73;;;1.00;;
70369;SDS011;57790;51.356;-2.906;2023-03-16T12:57:04;6.20;;;0.90;;
70369;SDS011;57790;51.356;-2.906;2023-03-16T13:00:07;6.03;;;1.00;;
70369;SDS011;57790;51.356;-2.906;2023-03-16T13:03:13;9.60;;;1.30;;
70369;SDS011;57790;51.356;-2.906;2023-03-16T13:06:22;6.30;;;0.95;;
70369;SDS011;57790;51.356;-2.906;2023-03-16T13:09:24;9.75;;;1.20;;
70369;SDS011;57790;51.356;-2.906;2023-03-16T13:12:28;5.63;;;1.10;;
70369;SDS011;57790;51.356;-2.906;2023-03-16T13:15:31;8.75;;;1.20;;
70369;SDS011;57790;51.356;-2.906;2023-03-16T13:18:33;6.87;;;1.20;;
70369;SDS011;57790;51.356;-2.906;2023-03-16T13:21:36;5.90;;;1.33;;
70369;SDS011;57790;51.356;-2.906;2023-03-16T13:24:48;4.97;;;1.20;;
70369;SDS011;57790;51.356;-2.906;2023-03-16T13:27:51;9.85;;;1.40;;
70369;SDS011;57790;51.356;-2.906;2023-03-16T13:30:54;8.57;;;1.27;;
70369;SDS011;57790;51.356;-2.906;2023-03-16T13:33:55;10.90;;;1.50;;
70369;SDS011;57790;51.356;-2.906;2023-03-16T13:36:59;6.78;;;1.70;;
70369;SDS011;57790;51.356;-2.906;2023-03-16T13:40:01;6.55;;;1.30;;
70369;SDS011;57790;51.356;-2.906;2023-03-16T13:43:03;6.80;;;1.10;;
70369;SDS011;57790;51.356;-2.906;2023-03-16T13:46:14;12.37;;;1.47;;
70369;SDS011;57790;51.356;-2.906;2023-03-16T13:49:16;7.28;;;1.20;;
70369;SDS011;57790;51.356;-2.906;2023-03-16T13:55:26;5.37;;;1.20;;
70369;SDS011;57790;51.356;-2.906;2023-03-16T13:58:33;8.07;;;1.50;;
70369;SDS011;57790;51.356;-2.906;2023-03-16T14:01:36;7.47;;;1.55;;
70369;SDS011;57790;51.356;-2.906;2023-03-16T14:04:37;11.47;;;1.33;;
70369;SDS011;57790;51.356;-2.906;2023-03-16T14:07:37;5.33;;;1.13;;
70369;SDS011;57790;51.356;-2.906;2023-03-16T14:10:38;8.02;;;1.25;;
70369;SDS011;57790;51.356;-2.906;2023-03-16T14:13:39;9.30;;;1.55;;
70369;SDS011;57790;51.356;-2.906;2023-03-16T14:16:39;7.93;;;1.63;;
70369;SDS011;57790;51.356;-2.906;2023-03-16T14:19:51;9.48;;;1.77;;
70369;SDS011;57790;51.356;-2.906;2023-03-16T14:22:55;8.23;;;1.33;;
70369;SDS011;57790;51.356;-2.906;2023-03-16T14:25:56;8.57;;;1.60;;
70369;SDS011;57790;51.356;-2.906;2023-03-16T14:32:00;11.13;;;2.10;;
70369;SDS011;57790;51.356;-2.906;2023-03-16T14:35:12;6.97;;;1.60;;
70369;SDS011;57790;51.356;-2.906;2023-03-16T14:38:25;10.85;;;1.80;;
70369;SDS011;57790;51.356;-2.906;2023-03-16T14:41:30;9.73;;;1.83;;
70369;SDS011;57790;51.356;-2.906;2023-03-16T14:44:33;8.32;;;1.63;;
70369;SDS011;57790;51.356;-2.906;2023-03-16T14:47:38;10.02;;;1.48;;
70369;SDS011;57790;51.356;-2.906;2023-03-16T14:50:41;8.80;;;1.70;;
70369;SDS011;57790;51.356;-2.906;2023-03-16T14:53:42;10.50;;;1.55;;
70369;SDS011;57790;51.356;-2.906;2023-03-16T14:56:50;8.00;;;1.80;;
70369;SDS011;57790;51.356;-2.906;2023-03-16T14:59:52;8.20;;;1.92;;
70369;SDS011;57790;51.356;-2.906;2023-03-16T15:02:55;10.77;;;1.98;;
70369;SDS011;57790;51.356;-2.906;2023-03-16T15:05:59;10.47;;;1.80;;
70369;SDS011;57790;51.356;-2.906;2023-03-16T15:09:01;11.32;;;2.40;;
70369;SDS011;57790;51.356;-2.906;2023-03-16T15:12:01;11.50;;;2.07;;
70369;SDS011;57790;51.356;-2.906;2023-03-16T15:15:12;10.18;;;1.85;;
70369;SDS011;57790;51.356;-2.906;2023-03-16T15:18:15;9.47;;;2.10;;
70369;SDS011;57790;51.356;-2.906;2023-03-16T15:21:19;8.17;;;2.50;;
70369;SDS011;57790;51.356;-2.906;2023-03-16T15:24:21;7.75;;;1.98;;
70369;SDS011;57790;51.356;-2.906;2023-03-16T15:27:22;10.17;;;2.03;;
70369;SDS011;57790;51.356;-2.906;2023-03-16T15:30:26;9.25;;;1.88;;
70369;SDS011;57790;51.356;-2.906;2023-03-16T15:33:27;8.93;;;1.87;;
70369;SDS011;57790;51.356;-2.906;2023-03-16T15:36:28;11.20;;;2.28;;
70369;SDS011;57790;51.356;-2.906;2023-03-16T15:39:29;9.53;;;2.10;;
70369;SDS011;57790;51.356;-2.906;2023-03-16T15:42:29;10.40;;;2.20;;
70369;SDS011;57790;51.356;-2.906;2023-03-16T15:45:29;9.17;;;2.27;;
70369;SDS011;57790;51.356;-2.906;2023-03-16T15:48:30;6.68;;;1.73;;
70369;SDS011;57790;51.356;-2.906;2023-03-16T15:51:31;9.65;;;2.40;;
70369;SDS011;57790;51.356;-2.906;2023-03-16T15:54:35;9.00;;;1.60;;
70369;SDS011;57790;51.356;-2.906;2023-03-16T15:57:36;7.80;;;1.70;;
70369;SDS011;57790;51.356;-2.906;2023-03-16T16:00:37;7.77;;;1.60;;
70369;SDS011;57790;51.356;-2.906;2023-03-16T16:03:38;10.43;;;2.15;;
70369;SDS011;57790;51.356;-2.906;2023-03-16T16:06:39;8.85;;;2.20;;
70369;SDS011;57790;51.356;-2.906;2023-03-16T16:09:40;9.83;;;1.80;;
70369;SDS011;57790;51.356;-2.906;2023-03-16T16:12:41;11.38;;;1.88;;
70369;SDS011;57790;51.356;-2.906;2023-03-16T16:15:50;8.57;;;2.20;;
70369;SDS011;57790;51.356;-2.906;2023-03-16T16:18:50;7.70;;;1.83;;
70369;SDS011;57790;51.356;-2.906;2023-03-16T16:21:50;8.73;;;1.80;;
70369;SDS011;57790;51.356;-2.906;2023-03-16T16:24:51;7.18;;;1.75;;
70369;SDS011;57790;51.356;-2.906;2023-03-16T16:27:52;10.33;;;2.10;;
70369;SDS011;57790;51.356;-2.906;2023-03-16T16:30:52;8.37;;;1.93;;
70369;SDS011;57790;51.356;-2.906;2023-03-16T16:33:53;7.68;;;1.88;;
70369;SDS011;57790;51.356;-2.906;2023-03-16T16:36:55;7.15;;;1.92;;
70369;SDS011;57790;51.356;-2.906;2023-03-16T16:39:56;7.50;;;1.47;;
70369;SDS011;57790;51.356;-2.906;2023-03-16T16:42:56;6.80;;;1.70;;
70369;SDS011;57790;51.356;-2.906;2023-03-16T16:46:05;8.00;;;1.67;;
70369;SDS011;57790;51.356;-2.906;2023-03-16T16:49:14;7.43;;;1.55;;
70369;SDS011;57790;51.356;-2.906;2023-03-16T16:52:23;7.72;;;1.48;;
70369;SDS011;57790;51.356;-2.906;2023-03-16T16:55:23;7.67;;;1.53;;
70369;SDS011;57790;51.356;-2.906;2023-03-16T16:58:24;9.13;;;2.03;;
70369;SDS011;57790;51.356;-2.906;2023-03-16T17:01:26;7.77;;;2.20;;
70369;SDS011;57790;51.356;-2.906;2023-03-16T17:04:29;7.35;;;1.67;;
70369;SDS011;57790;51.356;-2.906;2023-03-16T17:07:29;6.67;;;1.90;;
70369;SDS011;57790;51.356;-2.906;2023-03-16T17:10:30;6.87;;;1.83;;
70369;SDS011;57790;51.356;-2.906;2023-03-16T17:13:38;7.07;;;1.42;;
70369;SDS011;57790;51.356;-2.906;2023-03-16T17:16:39;8.40;;;1.73;;
70369;SDS011;57790;51.356;-2.906;2023-03-16T17:19:40;5.03;;;1.33;;
70369;SDS011;57790;51.356;-2.906;2023-03-16T17:22:46;7.32;;;1.80;;
70369;SDS011;57790;51.356;-2.906;2023-03-16T17:25:47;5.55;;;1.52;;
70369;SDS011;57790;51.356;-2.906;2023-03-16T17:28:52;6.57;;;1.40;;
70369;SDS011;57790;51.356;-2.906;2023-03-16T17:31:59;5.35;;;1.45;;
70369;SDS011;57790;51.356;-2.906;2023-03-16T17:35:04;6.63;;;1.70;;
70369;SDS011;57790;51.356;-2.906;2023-03-16T17:38:23;5.20;;;1.57;;
70369;SDS011;57790;51.356;-2.906;2023-03-16T17:41:25;5.03;;;1.42;;
70369;SDS011;57790;51.356;-2.906;2023-03-16T17:44:31;6.90;;;1.83;;
70369;SDS011;57790;51.356;-2.906;2023-03-16T17:47:33;6.25;;;1.52;;
70369;SDS011;57790;51.356;-2.906;2023-03-16T17:50:39;7.40;;;1.40;;
70369;SDS011;57790;51.356;-2.906;2023-03-16T17:53:40;4.33;;;1.30;;
70369;SDS011;57790;51.356;-2.906;2023-03-16T17:56:49;7.05;;;1.60;;
70369;SDS011;57790;51.356;-2.906;2023-03-16T17:59:51;4.47;;;1.15;;
70369;SDS011;57790;51.356;-2.906;2023-03-16T18:05:56;3.70;;;1.17;;
70369;SDS011;57790;51.356;-2.906;2023-03-16T18:08:56;4.93;;;1.10;;
70369;SDS011;57790;51.356;-2.906;2023-03-16T18:11:57;4.30;;;1.17;;
70369;SDS011;57790;51.356;-2.906;2023-03-16T18:14:57;7.80;;;1.50;;
70369;SDS011;57790;51.356;-2.906;2023-03-16T18:17:58;4.27;;;1.30;;
70369;SDS011;57790;51.356;-2.906;2023-03-16T18:20:59;7.83;;;1.33;;
70369;SDS011;57790;51.356;-2.906;2023-03-16T18:24:00;5.30;;;1.10;;
70369;SDS011;57790;51.356;-2.906;2023-03-16T18:27:01;4.95;;;1.30;;
70369;SDS011;57790;51.356;-2.906;2023-03-16T18:30:02;4.63;;;1.20;;
70369;SDS011;57790;51.356;-2.906;2023-03-16T18:33:04;5.18;;;1.30;;
70369;SDS011;57790;51.356;-2.906;2023-03-16T18:36:12;5.43;;;1.40;;
70369;SDS011;57790;51.356;-2.906;2023-03-16T18:39:17;6.57;;;1.20;;
70369;SDS011;57790;51.356;-2.906;2023-03-16T18:42:20;7.47;;;1.30;;
70369;SDS011;57790;51.356;-2.906;2023-03-16T18:45:23;3.97;;;1.30;;
70369;SDS011;57790;51.356;-2.906;2023-03-16T18:48:26;5.60;;;1.52;;
70369;SDS011;57790;51.356;-2.906;2023-03-16T18:51:30;4.88;;;1.30;;
70369;SDS011;57790;51.356;-2.906;2023-03-16T18:54:31;5.45;;;1.42;;
70369;SDS011;57790;51.356;-2.906;2023-03-16T18:57:37;4.13;;;1.30;;
70369;SDS011;57790;51.356;-2.906;2023-03-16T19:00:37;4.88;;;1.50;;
70369;SDS011;57790;51.356;-2.906;2023-03-16T19:03:39;5.87;;;1.67;;
70369;SDS011;57790;51.356;-2.906;2023-03-16T19:06:42;4.88;;;1.30;;
70369;SDS011;57790;51.356;-2.906;2023-03-16T19:09:43;6.00;;;1.50;;